sensor_id;sensor_type;location;lat;lon;timestamp;temperature;humidity
30250;DHT22;17064;47.974;13.826;2022-11-22T04:01:51;0.00;99.90
30250;DHT22;17064;47.974;13.826;2022-11-22T04:06:52;-0.10;99.90
30250;DHT22;17064;47.974;13.826;2022-11-22T04:11:52;-0.10;99.90
30250;DHT22;17064;47.974;13.826;2022-11-22T04:16:53;-0.20;99.90
30250;DHT22;17064;47.974;13.826;2022-11-22T04:21:54;-0.10;99.90
30250;DHT22;17064;47.974;13.826;2022-11-22T04:26:55;-0.10;99.90
30250;DHT22;17064;47.974;13.826;2022-11-22T04:31:56;-0.10;99.90
30250;DHT22;17064;47.974;13.826;2022-11-22T04:37:15;0.00;99.90
30250;DHT22;17064;47.974;13.826;2022-11-22T04:42:15;0.00;99.90
30250;DHT22;17064;47.974;13.826;2022-11-22T04:47:35;0.00;99.90
30250;DHT22;17064;47.974;13.826;2022-11-22T04:52:55;0.10;99.90
30250;DHT22;17064;47.974;13.826;2022-11-22T04:57:56;0.10;99.90
30250;DHT22;17064;47.974;13.826;2022-11-22T05:02:58;0.10;99.90
30250;DHT22;17064;47.974;13.826;2022-11-22T05:07:58;0.10;99.90
30250;DHT22;17064;47.974;13.826;2022-11-22T05:12:59;0.20;99.90
30250;DHT22;17064;47.974;13.826;2022-11-22T05:18:00;0.20;99.90
30250;DHT22;17064;47.974;13.826;2022-11-22T05:23:01;0.20;99.90
30250;DHT22;17064;47.974;13.826;2022-11-22T05:28:20;0.30;99.90
30250;DHT22;17064;47.974;13.826;2022-11-22T05:33:21;0.20;99.90
30250;DHT22;17064;47.974;13.826;2022-11-22T05:38:22;0.20;99.90
30250;DHT22;17064;47.974;13.826;2022-11-22T05:43:22;0.10;99.90
30250;DHT22;17064;47.974;13.826;2022-11-22T05:48:23;0.00;99.90
30250;DHT22;17064;47.974;13.826;2022-11-22T05:53:24;0.00;99.90
30250;DHT22;17064;47.974;13.826;2022-11-22T05:58:25;0.00;99.90
30250;DHT22;17064;47.974;13.826;2022-11-22T06:03:26;0.00;99.90
30250;DHT22;17064;47.974;13.826;2022-11-22T06:08:29;0.00;99.90
30250;DHT22;17064;47.974;13.826;2022-11-22T06:13:38;0.00;99.90
30250;DHT22;17064;47.974;13.826;2022-11-22T06:18:39;0.00;99.90
30250;DHT22;17064;47.974;13.826;2022-11-22T06:23:40;0.10;99.90
30250;DHT22;17064;47.974;13.826;2022-11-22T06:28:41;0.10;99.90
30250;DHT22;17064;47.974;13.826;2022-11-22T06:33:42;0.20;99.90
30250;DHT22;17064;47.974;13.826;2022-11-22T06:38:44;0.20;99.90
30250;DHT22;17064;47.974;13.826;2022-11-22T06:43:46;0.20;99.90
30250;DHT22;17064;47.974;13.826;2022-11-22T06:48:47;0.30;99.90
30250;DHT22;17064;47.974;13.826;2022-11-22T06:53:49;0.30;99.90
30250;DHT22;17064;47.974;13.826;2022-11-22T06:58:51;0.40;99.90
30250;DHT22;17064;47.974;13.826;2022-11-22T07:03:52;0.40;99.90
30250;DHT22;17064;47.974;13.826;2022-11-22T07:08:58;0.50;99.90
30250;DHT22;17064;47.974;13.826;2022-11-22T07:14:01;0.60;99.90
30250;DHT22;17064;47.974;13.826;2022-11-22T07:19:02;0.60;99.90
30250;DHT22;17064;47.974;13.826;2022-11-22T07:24:04;0.70;99.90
30250;DHT22;17064;47.974;13.826;2022-11-22T07:29:05;0.70;99.90
30250;DHT22;17064;47.974;13.826;2022-11-22T07:34:06;0.80;99.90
30250;DHT22;17064;47.974;13.826;2022-11-22T07:39:07;0.80;99.90
30250;DHT22;17064;47.974;13.826;2022-11-22T07:44:08;0.90;99.90
30250;DHT22;17064;47.974;13.826;2022-11-22T07:49:08;1.00;99.90
30250;DHT22;17064;47.974;13.826;2022-11-22T07:54:12;1.10;99.90
30250;DHT22;17064;47.974;13.826;2022-11-22T07:59:13;1.20;99.90
30250;DHT22;17064;47.974;13.826;2022-11-22T08:04:14;1.30;99.90
30250;DHT22;17064;47.974;13.826;2022-11-22T08:09:14;1.40;99.90
30250;DHT22;17064;47.974;13.826;2022-11-22T08:14:15;1.40;99.90
30250;DHT22;17064;47.974;13.826;2022-11-22T08:19:16;1.50;99.90
30250;DHT22;17064;47.974;13.826;2022-11-22T08:24:17;1.50;99.90
30250;DHT22;17064;47.974;13.826;2022-11-22T08:29:18;1.60;99.90
30250;DHT22;17064;47.974;13.826;2022-11-22T08:34:18;1.60;99.90
30250;DHT22;17064;47.974;13.826;2022-11-22T08:39:19;1.70;99.90
30250;DHT22;17064;47.974;13.826;2022-11-22T08:44:21;1.70;99.90
30250;DHT22;17064;47.974;13.826;2022-11-22T08:49:22;1.80;99.90
30250;DHT22;17064;47.974;13.826;2022-11-22T08:54:22;1.90;99.90
30250;DHT22;17064;47.974;13.826;2022-11-22T08:59:23;2.00;99.90
30250;DHT22;17064;47.974;13.826;2022-11-22T09:04:24;2.00;99.90
30250;DHT22;17064;47.974;13.826;2022-11-22T09:09:25;2.20;99.90
30250;DHT22;17064;47.974;13.826;2022-11-22T09:14:25;2.20;99.90
30250;DHT22;17064;47.974;13.826;2022-11-22T09:19:26;2.30;99.90
30250;DHT22;17064;47.974;13.826;2022-11-22T09:24:27;2.30;99.90
30250;DHT22;17064;47.974;13.826;2022-11-22T09:29:27;2.30;99.90
30250;DHT22;17064;47.974;13.826;2022-11-22T09:34:28;2.30;99.90
30250;DHT22;17064;47.974;13.826;2022-11-22T09:39:29;2.30;99.90
30250;DHT22;17064;47.974;13.826;2022-11-22T09:49:45;2.50;99.90
30250;DHT22;17064;47.974;13.826;2022-11-22T09:55:03;2.60;99.90
30250;DHT22;17064;47.974;13.826;2022-11-22T10:00:08;2.70;99.90
30250;DHT22;17064;47.974;13.826;2022-11-22T10:05:45;2.70;99.90
30250;DHT22;17064;47.974;13.826;2022-11-22T10:10:41;2.70;99.90
30250;DHT22;17064;47.974;13.826;2022-11-22T10:20:45;2.60;99.90
30250;DHT22;17064;47.974;13.826;2022-11-22T10:26:01;2.50;99.90
30250;DHT22;17064;47.974;13.826;2022-11-22T10:31:16;2.40;99.90
30250;DHT22;17064;47.974;13.826;2022-11-22T10:41:56;2.40;99.90
30250;DHT22;17064;47.974;13.826;2022-11-22T10:58:04;2.30;99.90
30250;DHT22;17064;47.974;13.826;2022-11-22T11:03:29;2.30;99.90
30250;DHT22;17064;47.974;13.826;2022-11-22T11:13:41;2.30;99.90
30250;DHT22;17064;47.974;13.826;2022-11-22T11:18:49;2.30;99.90
30250;DHT22;17064;47.974;13.826;2022-11-22T11:23:51;2.30;99.90
30250;DHT22;17064;47.974;13.826;2022-11-22T11:34:27;2.30;99.90
30250;DHT22;17064;47.974;13.826;2022-11-22T11:39:33;2.30;99.90
30250;DHT22;17064;47.974;13.826;2022-11-22T11:44:36;2.40;99.90
30250;DHT22;17064;47.974;13.826;2022-11-22T11:49:37;2.50;99.90
30250;DHT22;17064;47.974;13.826;2022-11-22T11:54:43;2.50;99.90
30250;DHT22;17064;47.974;13.826;2022-11-22T11:59:47;2.60;99.90
30250;DHT22;17064;47.974;13.826;2022-11-22T12:04:51;2.60;99.90
30250;DHT22;17064;47.974;13.826;2022-11-22T12:09:54;2.60;99.90
30250;DHT22;17064;47.974;13.826;2022-11-22T12:15:19;2.50;99.90
30250;DHT22;17064;47.974;13.826;2022-11-22T12:20:36;2.60;99.90
30250;DHT22;17064;47.974;13.826;2022-11-22T12:25:42;2.60;99.90
30250;DHT22;17064;47.974;13.826;2022-11-22T12:30:55;2.70;99.90
30250;DHT22;17064;47.974;13.826;2022-11-22T12:35:58;2.70;99.90
30250;DHT22;17064;47.974;13.826;2022-11-22T12:41:02;2.70;99.90
30250;DHT22;17064;47.974;13.826;2022-11-22T12:46:17;2.70;99.90
30250;DHT22;17064;47.974;13.826;2022-11-22T12:51:27;2.80;99.90
30250;DHT22;17064;47.974;13.826;2022-11-22T12:56:47;2.80;99.90
30250;DHT22;17064;47.974;13.826;2022-11-22T13:02:14;2.90;99.90
30250;DHT22;17064;47.974;13.826;2022-11-22T13:12:29;2.90;99.90
30250;DHT22;17064;47.974;13.826;2022-11-22T13:17:33;2.90;99.90
30250;DHT22;17064;47.974;13.826;2022-11-22T13:23:05;2.90;99.90
30250;DHT22;17064;47.974;13.826;2022-11-22T13:28:18;2.90;99.90
30250;DHT22;17064;47.974;13.826;2022-11-22T13:33:24;3.00;99.90
30250;DHT22;17064;47.974;13.826;2022-11-22T13:38:26;3.00;99.90
30250;DHT22;17064;47.974;13.826;2022-11-22T13:43:37;3.10;99.90
30250;DHT22;17064;47.974;13.826;2022-11-22T13:54:36;2.90;99.90
30250;DHT22;17064;47.974;13.826;2022-11-22T13:59:38;2.90;99.90
30250;DHT22;17064;47.974;13.826;2022-11-22T14:04:40;3.00;99.90
30250;DHT22;17064;47.974;13.826;2022-11-22T14:30:49;3.30;99.90
30250;DHT22;17064;47.974;13.826;2022-11-22T14:46:48;3.30;99.90
30250;DHT22;17064;47.974;13.826;2022-11-22T14:51:54;3.30;99.90
30250;DHT22;17064;47.974;13.826;2022-11-22T14:57:02;3.20;99.90
30250;DHT22;17064;47.974;13.826;2022-11-22T15:18:07;2.80;99.90
30250;DHT22;17064;47.974;13.826;2022-11-22T15:28:19;2.70;99.90
30250;DHT22;17064;47.974;13.826;2022-11-22T15:33:26;2.70;99.90
30250;DHT22;17064;47.974;13.826;2022-11-22T15:38:29;2.60;99.90
30250;DHT22;17064;47.974;13.826;2022-11-22T15:43:30;2.60;99.90
30250;DHT22;17064;47.974;13.826;2022-11-22T15:48:43;2.60;99.90
30250;DHT22;17064;47.974;13.826;2022-11-22T15:54:10;2.70;99.90
30250;DHT22;17064;47.974;13.826;2022-11-22T16:04:26;2.70;99.90
30250;DHT22;17064;47.974;13.826;2022-11-22T16:09:36;2.70;99.90
30250;DHT22;17064;47.974;13.826;2022-11-22T16:14:48;2.60;99.90
30250;DHT22;17064;47.974;13.826;2022-11-22T16:19:49;2.60;99.90
30250;DHT22;17064;47.974;13.826;2022-11-22T16:24:50;2.60;99.90
30250;DHT22;17064;47.974;13.826;2022-11-22T16:29:51;2.70;99.90
30250;DHT22;17064;47.974;13.826;2022-11-22T16:34:52;2.70;99.90
30250;DHT22;17064;47.974;13.826;2022-11-22T16:39:53;2.60;99.90
30250;DHT22;17064;47.974;13.826;2022-11-22T16:44:53;2.60;99.90
30250;DHT22;17064;47.974;13.826;2022-11-22T16:49:55;2.60;99.90
30250;DHT22;17064;47.974;13.826;2022-11-22T16:54:57;2.60;99.90
30250;DHT22;17064;47.974;13.826;2022-11-22T16:59:57;2.60;99.90
30250;DHT22;17064;47.974;13.826;2022-11-22T17:04:58;2.60;99.90
30250;DHT22;17064;47.974;13.826;2022-11-22T17:09:59;2.60;99.90
30250;DHT22;17064;47.974;13.826;2022-11-22T17:15:00;2.60;99.90
30250;DHT22;17064;47.974;13.826;2022-11-22T17:20:01;2.70;99.90
30250;DHT22;17064;47.974;13.826;2022-11-22T17:25:02;2.60;99.90
30250;DHT22;17064;47.974;13.826;2022-11-22T17:30:04;2.70;99.90
30250;DHT22;17064;47.974;13.826;2022-11-22T17:35:07;2.70;99.90
30250;DHT22;17064;47.974;13.826;2022-11-22T17:40:09;2.70;99.90
30250;DHT22;17064;47.974;13.826;2022-11-22T17:45:10;2.70;99.90
30250;DHT22;17064;47.974;13.826;2022-11-22T17:50:11;2.70;99.90
30250;DHT22;17064;47.974;13.826;2022-11-22T17:55:12;2.70;99.90
30250;DHT22;17064;47.974;13.826;2022-11-22T18:00:14;2.70;99.90
30250;DHT22;17064;47.974;13.826;2022-11-22T18:05:17;2.70;99.90
30250;DHT22;17064;47.974;13.826;2022-11-22T18:10:17;2.70;99.90
30250;DHT22;17064;47.974;13.826;2022-11-22T18:15:18;2.70;99.90
30250;DHT22;17064;47.974;13.826;2022-11-22T18:20:19;2.70;99.90
30250;DHT22;17064;47.974;13.826;2022-11-22T18:25:22;2.70;99.90
30250;DHT22;17064;47.974;13.826;2022-11-22T18:30:23;2.70;99.90
30250;DHT22;17064;47.974;13.826;2022-11-22T18:35:25;2.70;99.90
30250;DHT22;17064;47.974;13.826;2022-11-22T18:40:26;2.70;99.90
30250;DHT22;17064;47.974;13.826;2022-11-22T18:45:28;2.70;99.90
30250;DHT22;17064;47.974;13.826;2022-11-22T18:50:33;2.70;99.90
30250;DHT22;17064;47.974;13.826;2022-11-22T18:55:34;2.70;99.90
30250;DHT22;17064;47.974;13.826;2022-11-22T19:00:36;2.70;99.90
30250;DHT22;17064;47.974;13.826;2022-11-22T19:05:39;2.80;99.90
30250;DHT22;17064;47.974;13.826;2022-11-22T19:10:41;2.80;99.90
30250;DHT22;17064;47.974;13.826;2022-11-22T19:15:43;2.80;99.90
30250;DHT22;17064;47.974;13.826;2022-11-22T19:20:45;2.80;99.90
30250;DHT22;17064;47.974;13.826;2022-11-22T19:25:46;2.80;99.90
30250;DHT22;17064;47.974;13.826;2022-11-22T19:30:48;2.80;99.90
30250;DHT22;17064;47.974;13.826;2022-11-22T19:36:03;2.80;99.90
30250;DHT22;17064;47.974;13.826;2022-11-22T19:41:15;2.90;99.90
30250;DHT22;17064;47.974;13.826;2022-11-22T19:46:19;2.90;99.90
30250;DHT22;17064;47.974;13.826;2022-11-22T19:51:22;2.90;99.90
30250;DHT22;17064;47.974;13.826;2022-11-22T19:56:24;2.90;99.90
30250;DHT22;17064;47.974;13.826;2022-11-22T20:01:29;2.90;99.90
30250;DHT22;17064;47.974;13.826;2022-11-22T20:06:31;2.90;99.90
30250;DHT22;17064;47.974;13.826;2022-11-22T20:11:35;2.90;99.90
30250;DHT22;17064;47.974;13.826;2022-11-22T20:16:37;2.90;99.90
30250;DHT22;17064;47.974;13.826;2022-11-22T20:21:42;2.90;99.90
30250;DHT22;17064;47.974;13.826;2022-11-22T20:26:44;3.00;99.90
30250;DHT22;17064;47.974;13.826;2022-11-22T20:31:45;3.00;99.90
30250;DHT22;17064;47.974;13.826;2022-11-22T20:36:47;3.00;99.90
30250;DHT22;17064;47.974;13.826;2022-11-22T20:41:48;3.00;99.90
30250;DHT22;17064;47.974;13.826;2022-11-22T20:46:49;3.00;99.90
30250;DHT22;17064;47.974;13.826;2022-11-22T20:51:50;3.00;99.90
30250;DHT22;17064;47.974;13.826;2022-11-22T20:56:53;3.00;99.90
30250;DHT22;17064;47.974;13.826;2022-11-22T21:01:55;3.00;99.90
30250;DHT22;17064;47.974;13.826;2022-11-22T21:06:56;3.00;99.90
30250;DHT22;17064;47.974;13.826;2022-11-22T21:11:58;3.00;99.90
30250;DHT22;17064;47.974;13.826;2022-11-22T21:16:59;3.00;99.90
30250;DHT22;17064;47.974;13.826;2022-11-22T21:22:00;3.00;99.90
30250;DHT22;17064;47.974;13.826;2022-11-22T21:27:02;3.00;99.90
30250;DHT22;17064;47.974;13.826;2022-11-22T21:32:02;3.00;99.90
30250;DHT22;17064;47.974;13.826;2022-11-22T21:37:03;3.00;99.90
30250;DHT22;17064;47.974;13.826;2022-11-22T21:42:04;3.00;99.90
30250;DHT22;17064;47.974;13.826;2022-11-22T21:47:04;2.90;99.90
30250;DHT22;17064;47.974;13.826;2022-11-22T21:52:05;3.00;99.90
30250;DHT22;17064;47.974;13.826;2022-11-22T21:57:06;3.00;99.90
30250;DHT22;17064;47.974;13.826;2022-11-22T22:02:07;2.90;99.90
30250;DHT22;17064;47.974;13.826;2022-11-22T22:07:08;3.00;99.90
30250;DHT22;17064;47.974;13.826;2022-11-22T22:12:09;3.00;99.90
30250;DHT22;17064;47.974;13.826;2022-11-22T22:17:10;3.00;99.90
30250;DHT22;17064;47.974;13.826;2022-11-22T22:22:10;3.00;99.90
30250;DHT22;17064;47.974;13.826;2022-11-22T22:27:11;3.00;99.90
30250;DHT22;17064;47.974;13.826;2022-11-22T22:32:12;3.00;99.90
30250;DHT22;17064;47.974;13.826;2022-11-22T22:37:12;3.00;99.90
30250;DHT22;17064;47.974;13.826;2022-11-22T22:42:13;3.00;99.90
30250;DHT22;17064;47.974;13.826;2022-11-22T22:47:14;3.00;99.90
30250;DHT22;17064;47.974;13.826;2022-11-22T22:52:15;3.00;99.90
30250;DHT22;17064;47.974;13.826;2022-11-22T22:57:16;3.00;99.90
30250;DHT22;17064;47.974;13.826;2022-11-22T23:02:16;3.00;99.90
30250;DHT22;17064;47.974;13.826;2022-11-22T23:07:17;3.00;99.90
30250;DHT22;17064;47.974;13.826;2022-11-22T23:12:18;3.00;99.90
30250;DHT22;17064;47.974;13.826;2022-11-22T23:17:18;3.00;99.90
30250;DHT22;17064;47.974;13.826;2022-11-22T23:22:19;3.00;99.90
30250;DHT22;17064;47.974;13.826;2022-11-22T23:27:20;3.00;99.90
30250;DHT22;17064;47.974;13.826;2022-11-22T23:32:20;3.00;99.90
30250;DHT22;17064;47.974;13.826;2022-11-22T23:37:21;3.00;99.90
30250;DHT22;17064;47.974;13.826;2022-11-22T23:42:22;3.00;99.90
30250;DHT22;17064;47.974;13.826;2022-11-22T23:47:22;3.00;99.90
30250;DHT22;17064;47.974;13.826;2022-11-22T23:52:23;3.00;99.90
30250;DHT22;17064;47.974;13.826;2022-11-22T23:57:24;2.90;99.90
